Latest Weather Observations for Esperance Airport

IDW60801

Issued at 12:32 pm WST Tuesday 21 April 2015 (issued every 30 minutes, with the page automatically refreshed every 10 minutes)

About weather observations | Map of weather stations | Latest weather observations for WA | Other Formats
Station Details ID: 009542 Name: ESPERANCE AERO Lat: -33.68 Lon: 121.83 Height: 142.0 m
Data from the previous 72 hours. | See also: Recent months at Esperance Airport
Date/Time
WST
Temp
°C
App
Temp
°C
Dew
Point
Rel
Hum
%
Delta-T
°C
Wind Press
QNH
hPa
Press
MSL
hPa
Rain
since 9 am
mm
Dir
 
Spd
km/h
Gust
km/h
Spd
kts
Gust
kts
21/12:30pm 22.8 17.2 5.3 32 8.8 N 24 33 13 18 1024.3 1023.9 0.0
21/12:00pm 22.2 16.9 6.8 37 7.9 N 24 32 13 17 1024.9 1024.6 0.0
21/11:30am 20.2 15.2 6.5 41 6.9 N 22 30 12 16 1025.6 1025.3 0.0
21/11:00am 18.9 14.0 6.7 45 6.1 N 22 28 12 15 1026.2 1025.9 0.0
21/10:30am 17.4 12.1 6.6 49 5.4 N 24 32 13 17 1026.5 1026.2 0.0
21/10:00am 15.7 9.8 5.9 52 4.7 N 26 33 14 18 1026.7 1026.4 0.0
21/09:30am 16.3 11.0 7.0 54 4.6 N 24 30 13 16 1027.1 1026.8 0.0
21/09:00am 15.3 10.1 7.3 59 4.0 N 24 35 13 19 1027.3 1027.0 0.0
21/08:30am 13.1 7.9 7.3 68 2.8 NNE 24 39 13 21 1027.5 1027.2 0.0
21/08:00am 11.8 6.2 7.1 73 2.3 NNE 26 33 14 18 1027.5 1027.2 0.0
21/07:30am 11.3 6.4 7.0 75 2.1 NNE 22 33 12 18 1027.4 1027.1 0.0
21/07:00am 9.7 5.3 6.6 81 1.4 NNE 19 26 10 14 1027.3 1027.0 0.0
21/06:30am 9.1 4.7 6.4 83 1.3 NNE 19 28 10 15 1027.2 1026.9 0.0
21/06:00am 9.4 4.8 6.5 82 1.3 NNE 20 28 11 15 1027.1 1026.8 0.0
21/05:30am 9.7 5.7 6.8 82 1.4 NNE 17 26 9 14 1027.2 1026.9 0.0
21/05:00am 9.5 5.6 7.3 86 1.0 NNE 17 24 9 13 1027.2 1026.9 0.0
21/04:30am 9.7 5.5 7.5 86 1.1 NNE 19 26 10 14 1027.1 1026.8 0.0
21/04:00am 9.7 5.5 7.5 86 1.0 NNE 19 24 10 13 1027.2 1026.9 0.0
21/03:30am 10.0 6.2 7.4 84 1.2 NNE 17 24 9 13 1027.1 1026.8 0.0
21/03:00am 10.5 6.3 7.6 82 1.4 NNE 19 24 10 13 1027.2 1026.9 0.0
21/02:30am 10.8 7.0 7.7 81 1.5 NE 17 26 9 14 1027.3 1027.0 0.0
21/02:00am 11.1 7.3 7.6 79 1.7 NE 17 26 9 14 1027.5 1027.2 0.0
21/01:30am 11.1 7.3 7.6 79 1.7 NNE 17 22 9 12 1027.9 1027.6 0.0
21/01:00am 11.0 7.1 7.3 78 1.8 NNE 17 22 9 12 1028.1 1027.8 0.0
21/12:30am 11.8 8.0 7.5 75 2.1 NE 17 24 9 13 1028.2 1027.9 0.0
21/12:00am 11.9 8.5 7.8 76 2.0 NE 15 20 8 11 1028.2 1027.9 0.0
 
Date/Time
WST
Temp
°C
App
Temp
°C
Dew
Point
Rel
Hum
%
Delta-T
°C
Wind Press
QNH
hPa
Press
MSL
hPa
Rain
since 9 am
mm
Dir
 
Spd
km/h
Gust
km/h
Spd
kts
Gust
kts
20/11:30pm 12.4 9.5 8.1 75 2.1 NE 13 19 7 10 1028.1 1027.8 0.0
20/11:00pm 12.7 9.8 8.0 73 2.3 NE 13 19 7 10 1028.1 1027.8 0.0
20/10:30pm 13.1 10.5 7.8 70 2.6 NE 11 19 6 10 1028.2 1027.9 0.0
20/10:00pm 13.7 10.2 7.0 64 3.3 NE 15 20 8 11 1028.2 1027.9 0.0
20/09:30pm 14.5 11.1 5.8 56 4.1 ENE 13 20 7 11 1028.3 1028.0 0.0
20/09:00pm 15.3 11.6 6.1 54 4.4 NNE 15 20 8 11 1028.2 1027.9 0.0
20/08:30pm 16.1 12.3 6.0 51 4.9 NNE 15 22 8 12 1028.1 1027.8 0.0
20/08:00pm 16.1 12.4 6.3 52 4.8 NNE 15 20 8 11 1027.9 1027.6 0.0
20/07:30pm 16.7 13.4 6.2 50 5.1 NNE 13 20 7 11 1027.9 1027.6 0.0
20/07:00pm 17.2 14.7 6.4 49 5.3 NE 9 19 5 10 1027.8 1027.5 0.0
20/06:30pm 16.9 14.8 6.7 51 5.1 ENE 7 11 4 6 1027.7 1027.4 0.0
20/06:00pm 17.9 15.7 6.4 47 5.7 ENE 7 15 4 8 1027.5 1027.2 0.0
20/05:30pm 19.0 16.9 6.5 44 6.3 ENE 7 11 4 6 1027.4 1027.1 0.0
20/05:00pm 20.7 18.1 6.3 39 7.2 NE 9 15 5 8 1027.4 1027.1 0.0
20/04:30pm 21.9 19.4 6.6 37 7.8 NE 9 15 5 8 1027.4 1027.1 0.0
20/04:00pm 22.2 18.9 6.4 36 8.0 NE 13 20 7 11 1027.4 1027.1 0.0
20/03:30pm 22.5 19.4 7.1 37 8.0 NE 13 20 7 11 1027.5 1027.2 0.0
20/03:00pm 22.3 19.1 6.9 37 7.9 NE 13 22 7 12 1027.7 1027.4 0.0
20/02:30pm 22.4 18.7 7.8 39 7.7 NNE 17 26 9 14 1027.8 1027.5 0.0
20/02:00pm 21.5 17.6 7.3 40 7.3 NNE 17 24 9 13 1028.0 1027.7 0.0
20/01:30pm 21.8 18.2 8.3 42 7.1 NNE 17 26 9 14 1028.4 1028.1 0.0
20/01:00pm 21.0 17.3 8.0 43 6.8 NNE 17 30 9 16 1028.8 1028.5 0.0
20/12:30pm 21.0 16.7 9.3 47 6.3 NNE 22 35 12 19 1029.3 1029.0 0.0
20/12:00pm 20.1 15.6 8.4 47 6.1 NNE 22 35 12 19 1030.0 1029.7 0.0
20/11:30am 19.7 14.9 8.7 49 5.8 NNE 24 32 13 17 1030.6 1030.4 0.0
20/11:00am 19.2 14.3 8.5 50 5.5 NNE 24 41 13 22 1031.2 1030.9 0.0
20/10:30am 18.3 12.6 8.3 52 5.2 N 28 39 15 21 1031.7 1031.4 0.0
20/10:00am 18.2 13.2 9.5 57 4.6 NNE 26 33 14 18 1032.1 1031.8 0.0
20/09:30am 16.6 11.5 9.3 62 3.8 NNE 26 37 14 20 1032.3 1032.0 0.0
20/09:00am 15.4 9.8 8.9 65 3.3 NNE 28 37 15 20 1032.6 1032.3 0.0
20/08:30am 14.4 9.2 8.8 69 2.9 NNE 26 33 14 18 1032.8 1032.5 0.0
20/08:00am 13.2 8.7 8.7 74 2.3 NNE 22 32 12 17 1033.0 1032.7 0.0
20/07:30am 11.6 7.5 8.6 82 1.5 NNE 20 28 11 15 1032.8 1032.5 0.0
20/07:00am 10.6 6.6 8.4 86 1.1 NNE 19 28 10 15 1032.5 1032.2 0.0
20/06:30am 10.0 5.8 8.1 88 0.9 NNE 20 24 11 13 1032.4 1032.1 0.0
20/06:00am 10.2 6.2 8.3 88 0.9 NNE 19 24 10 13 1032.4 1032.1 0.0
20/05:30am 10.4 6.5 8.5 88 0.9 NNE 19 26 10 14 1032.3 1032.0 0.0
20/05:00am 10.6 7.0 8.5 87 1.0 NNE 17 26 9 14 1032.0 1031.7 0.0
20/04:30am 10.7 7.2 8.8 88 0.9 NNE 17 24 9 13 1031.7 1031.4 0.0
20/04:00am 10.9 7.0 8.8 87 1.0 NNE 19 26 10 14 1031.5 1031.2 0.0
20/03:30am 11.2 7.4 9.1 87 1.1 NNE 19 30 10 16 1031.3 1031.0 0.0
20/03:00am 11.3 7.9 9.2 87 1.0 NNE 17 24 9 13 1031.4 1031.1 0.0
20/02:30am 11.4 8.0 9.3 87 1.1 NNE 17 24 9 13 1031.4 1031.1 0.0
20/02:00am 11.7 8.0 9.4 86 1.2 NNE 19 26 10 14 1031.6 1031.3 0.0
20/01:30am 11.9 8.6 9.5 85 1.2 NNE 17 24 9 13 1031.7 1031.4 0.0
20/01:00am 12.2 8.5 9.6 84 1.3 NNE 19 26 10 14 1031.6 1031.3 0.0
20/12:30am 12.7 9.1 9.7 82 1.5 NNE 19 28 10 15 1031.6 1031.3 0.0
20/12:00am 13.1 9.3 9.9 81 1.6 NNE 20 32 11 17 1031.6 1031.3 0.0
 
Date/Time
WST
Temp
°C
App
Temp
°C
Dew
Point
Rel
Hum
%
Delta-T
°C
Wind Press
QNH
hPa
Press
MSL
hPa
Rain
since 9 am
mm
Dir
 
Spd
km/h
Gust
km/h
Spd
kts
Gust
kts
19/11:30pm 13.3 10.5 10.1 81 1.7 NE 15 22 8 12 1031.7 1031.4 0.0
19/11:00pm 13.5 10.3 10.1 80 1.8 NE 17 22 9 12 1031.8 1031.5 0.0
19/10:30pm 13.6 10.4 9.8 78 2.0 NE 17 26 9 14 1032.0 1031.7 0.0
19/10:00pm 13.9 10.6 9.7 76 2.2 NE 17 28 9 15 1032.2 1031.9 0.0
19/09:30pm 14.0 10.7 9.4 74 2.4 NE 17 28 9 15 1032.2 1031.9 0.0
19/09:00pm 14.2 10.6 8.4 68 2.9 NE 17 30 9 16 1032.0 1031.7 0.0
19/08:30pm 16.2 12.6 6.9 54 4.6 NE 15 20 8 11 1031.8 1031.5 0.0
19/08:00pm 16.8 13.7 7.2 53 4.8 NE 13 19 7 10 1031.5 1031.2 0.0
19/07:30pm 17.1 14.0 7.2 52 5.0 NE 13 19 7 10 1031.4 1031.1 0.0
19/07:00pm 17.1 14.4 7.2 52 4.9 NE 11 15 6 8 1031.2 1030.9 0.0
19/06:30pm 17.2 14.9 7.3 52 5.0 NE 9 15 5 8 1030.9 1030.7 0.0
19/06:00pm 17.7 15.3 7.2 50 5.3 NE 9 15 5 8 1030.6 1030.4 0.0
19/05:30pm 18.5 16.2 7.3 48 5.7 NE 9 13 5 7 1030.2 1029.9 0.0
19/05:00pm 20.2 17.5 7.2 43 6.6 NE 11 17 6 9 1030.0 1029.7 0.0
19/04:30pm 21.0 17.9 7.3 41 7.1 NE 13 19 7 10 1029.9 1029.6 0.0
19/04:00pm 21.5 18.5 7.7 41 7.2 NE 13 24 7 13 1029.9 1029.6 0.0
19/03:30pm 22.0 18.2 7.4 39 7.6 NE 17 24 9 13 1030.0 1029.7 0.0
19/03:00pm 21.6 17.8 7.4 40 7.3 NNE 17 22 9 12 1030.0 1029.7 0.0
19/02:30pm 21.6 18.2 7.8 41 7.2 NE 15 26 8 14 1030.0 1029.7 0.0
19/02:00pm 21.5 18.0 7.0 39 7.4 NNE 15 24 8 13 1030.1 1029.8 0.0
19/01:30pm 21.1 17.2 7.0 40 7.2 NNE 17 24 9 13 1030.4 1030.2 0.0
19/01:00pm 20.7 17.9 8.4 45 6.4 NE 13 22 7 12 1030.6 1030.4 0.0
19/12:30pm 21.1 17.9 10.0 49 6.0 NNE 17 20 9 11 1031.0 1030.8 0.0
19/12:00pm 19.6 15.7 8.6 49 5.7 NE 19 28 10 15 1031.6 1031.3 0.0
19/11:30am 19.2 15.2 9.1 52 5.3 NE 20 32 11 17 1032.0 1031.7 0.0
19/11:00am 18.7 14.3 8.9 53 5.1 NNE 22 32 12 17 1032.5 1032.2 0.0
19/10:30am 18.0 13.6 9.1 56 4.7 NNE 22 33 12 18 1032.7 1032.4 0.0
19/10:00am 17.1 11.9 8.8 58 4.3 NE 26 35 14 19 1032.8 1032.5 0.0
19/09:30am 16.6 11.0 8.8 60 4.0 NNE 28 41 15 22 1033.0 1032.7 0.0
19/09:00am 15.6 11.2 9.1 65 3.3 NNE 22 41 12 22 1033.2 1032.9 0.6
19/08:30am 14.0 9.6 8.8 71 2.6 NNE 22 32 12 17 1033.2 1032.9 0.6
19/08:00am 13.0 9.2 8.9 76 2.1 NNE 19 28 10 15 1033.0 1032.7 0.6
19/07:30am 11.1 7.4 8.1 82 1.5 NNE 17 22 9 12 1032.9 1032.6 0.6
19/07:00am 9.6 6.5 7.2 85 1.1 NNE 13 17 7 9 1032.5 1032.2 0.6
19/06:30am 9.4 5.9 7.0 85 1.1 NNE 15 20 8 11 1032.1 1031.8 0.6
19/06:00am 8.7 5.1 6.7 87 0.9 NNE 15 22 8 12 1031.8 1031.5 0.6
19/05:30am 8.5 4.8 6.5 87 0.9 NNE 15 20 8 11 1031.7 1031.4 0.6
19/05:00am 9.2 5.9 6.5 83 1.3 NNE 13 19 7 10 1031.5 1031.2 0.6
19/04:30am 10.3 7.1 7.0 80 1.6 NE 13 20 7 11 1031.2 1030.9 0.6
19/04:00am 9.8 6.6 6.9 82 1.4 ENE 13 19 7 10 1031.0 1030.8 0.6
19/03:30am 10.2 7.4 6.9 80 1.6 ENE 11 19 6 10 1030.9 1030.7 0.6
19/03:00am 10.7 7.2 7.2 79 1.7 NE 15 20 8 11 1030.8 1030.6 0.6
19/02:30am 10.5 7.0 7.2 80 1.6 ENE 15 26 8 14 1030.6 1030.4 0.6
19/02:00am 10.3 7.3 7.5 83 1.3 ENE 13 20 7 11 1030.6 1030.4 0.6
19/01:30am 10.4 7.0 7.8 84 1.3 ENE 15 22 8 12 1030.7 1030.5 0.6
19/01:00am 10.6 7.7 8.2 85 1.2 ENE 13 19 7 10 1030.9 1030.7 0.6
19/12:30am 10.8 8.3 8.2 84 1.3 ENE 11 17 6 9 1031.0 1030.8 0.6
19/12:00am 11.1 8.3 8.5 84 1.3 ENE 13 20 7 11 1030.9 1030.7 0.6
 
Date/Time
WST
Temp
°C
App
Temp
°C
Dew
Point
Rel
Hum
%
Delta-T
°C
Wind Press
QNH
hPa
Press
MSL
hPa
Rain
since 9 am
mm
Dir
 
Spd
km/h
Gust
km/h
Spd
kts
Gust
kts
18/11:30pm 11.3 8.5 8.7 84 1.3 ENE 13 20 7 11 1030.9 1030.7 0.6
18/11:00pm 11.6 8.5 8.8 83 1.4 ENE 15 20 8 11 1030.9 1030.7 0.6
18/10:30pm 11.5 8.7 8.7 83 1.4 ENE 13 20 7 11 1030.9 1030.7 0.6
18/10:00pm 12.2 9.1 8.7 79 1.7 ENE 15 20 8 11 1030.7 1030.5 0.6
18/09:30pm 12.2 9.3 8.3 77 1.9 ENE 13 19 7 10 1030.7 1030.5 0.6
18/09:00pm 12.2 9.6 7.7 74 2.2 ENE 11 15 6 8 1030.6 1030.4 0.6
18/08:30pm 12.7 9.7 7.8 72 2.4 E 13 20 7 11 1030.6 1030.4 0.6
18/08:00pm 13.4 9.8 8.3 71 2.5 E 17 24 9 13 1030.5 1030.3 0.6
18/07:30pm 13.7 10.6 8.7 72 2.5 E 15 20 8 11 1030.3 1030.0 0.6
18/07:00pm 14.1 11.0 8.9 71 2.6 E 15 19 8 10 1030.0 1029.7 0.6
18/06:30pm 14.5 11.5 9.1 70 2.8 E 15 20 8 11 1029.6 1029.3 0.6
18/06:00pm 15.1 12.2 9.5 69 2.9 ESE 15 20 8 11 1029.2 1028.9 0.6
18/05:30pm 15.4 12.5 9.5 68 3.1 E 15 19 8 10 1028.8 1028.5 0.6
18/05:00pm 15.7 12.0 9.6 67 3.2 ESE 19 22 10 12 1028.6 1028.3 0.6
18/04:30pm 16.1 12.5 9.8 66 3.3 ESE 19 26 10 14 1028.4 1028.1 0.6
18/04:00pm 16.3 12.1 9.9 66 3.4 ESE 22 30 12 16 1028.1 1027.8 0.6
18/03:30pm 17.0 13.4 10.6 66 3.4 ESE 20 26 11 14 1027.9 1027.6 0.6
18/03:00pm 16.9 12.9 10.3 65 3.5 ESE 22 28 12 15 1027.9 1027.6 0.6
18/02:30pm 16.6 13.7 11.1 70 3.0 ESE 17 24 9 13 1027.7 1027.4 0.6
18/02:00pm 16.6 12.4 11.1 70 3.0 ESE 24 32 13 17 1027.5 1027.2 0.6
18/01:30pm 16.4 11.5 11.3 72 2.8 SE 28 37 15 20 1027.4 1027.1 0.6
18/01:00pm 16.5 12.1 11.6 73 2.7 SE 26 33 14 18 1027.4 1027.1 0.6

Other Formats:

Comma delimited format used in spreadsheet applications
http://www.bom.gov.au/fwo/IDW60801/IDW60801.95638.axf

JavaScript Object Notation format (JSON) in row-major order
http://www.bom.gov.au/fwo/IDW60801/IDW60801.95638.json